Centerville, IA

10:44 PM CDT on April 22, 2018 (GMT -0500)
Centerville Municipal

Weather History for KTVK - April, 2013

Change the Weather History Date:

Sunday, April 21, 2013

  Actual Average Record
Temperature  
Mean Temperature 54 °F -  
Max Temperature 66 °F 64 °F 89 °F (1980)
Min Temperature 41 °F 44 °F 25 °F (1950)
Degree Days  
Heating Degree Days 12    
Growing Degree Days 4 (Base 50)    
Moisture  
Dew Point 37 °F    
Average Humidity 55    
Maximum Humidity 71    
Minimum Humidity 34    
Precipitation  
Precipitation 0.00 in - - ()
Sea Level Pressure  
Sea Level Pressure 30.21 in    
Wind  
Wind Speed 15 mph (SSE)    
Max Wind Speed 23 mph    
Max Gust Speed 34 mph    
Visibility 10 miles    
Events      
Averages and records for this station are not official NWS values.
T = Trace of Precipitation, MM = Missing Value Source: NWS Daily Summary

Daily Weather History Graph

Daily Weather History Graph

Search for Another Location

Airport or City:

Astronomy

Apr. 21, 2013 Rise Set
Actual Time 6:23 AM CDT 7:57 PM CDT
Civil Twilight 5:54 AM CDT 8:26 PM CDT
Nautical Twilight 5:20 AM CDT 9:01 PM CDT
Astronomical Twilight 4:43 AM CDT 9:38 PM CDT
Moon 3:42 PM CDT (4/21) 3:47 AM CDT (4/21)
Length of Visible Light 14h 31m
Length of Day
13h 33m
Waxing Gibbous, 80% of the Moon is Illuminated
Apr 21
Waxing Gibbous
Apr 25
Full
May 2
Last Quarter
May 9
New
May 17
First Quarter

Hourly Weather History & Observations

Time (CDT) Temp. Windchill Dew Point Humidity Pressure Visibility Wind Dir Wind Speed Gust Speed Precip Events Conditions
12:15 AM 41.0 °F 34.3 °F 28.4 °F 61% 30.27 in 10.0 mi East 11.5 mph - N/A   Mostly Cloudy
12:35 AM 41.0 °F 34.7 °F 28.4 °F 61% 30.27 in 10.0 mi ESE 10.4 mph 16.1 mph N/A   Overcast
12:55 AM 41.0 °F 32.8 °F 28.4 °F 61% 30.26 in 10.0 mi ESE 16.1 mph 19.6 mph N/A   Scattered Clouds
1:15 AM 41.0 °F 34.7 °F 28.4 °F 61% 30.27 in 10.0 mi ESE 10.4 mph 17.3 mph N/A   Mostly Cloudy
1:35 AM 41.0 °F 33.1 °F 28.4 °F 61% 30.26 in 10.0 mi ESE 15.0 mph 19.6 mph N/A   Mostly Cloudy
4:35 AM 41.0 °F 33.1 °F 32.0 °F 70% 30.25 in 10.0 mi SE 15.0 mph - N/A   Mostly Cloudy
4:55 AM 41.0 °F 32.8 °F 32.0 °F 70% 30.25 in 10.0 mi SE 16.1 mph - N/A   Overcast
5:15 AM 41.0 °F 32.5 °F 32.0 °F 70% 30.25 in 10.0 mi SE 17.3 mph 20.7 mph N/A   Overcast
5:35 AM 41.0 °F 32.8 °F 32.0 °F 70% 30.25 in 10.0 mi SE 16.1 mph 21.9 mph N/A   Overcast
5:55 AM 41.0 °F 33.1 °F 32.0 °F 70% 30.26 in 10.0 mi SE 15.0 mph 18.4 mph N/A   Overcast
6:15 AM 41.0 °F 33.1 °F 32.0 °F 70% 30.26 in 10.0 mi SE 15.0 mph - N/A   Overcast
6:35 AM 41.0 °F 33.1 °F 32.0 °F 70% 30.27 in 10.0 mi SE 15.0 mph - N/A   Mostly Cloudy
6:55 AM 41.0 °F 33.1 °F 32.0 °F 70% 30.27 in 10.0 mi SE 15.0 mph 19.6 mph N/A   Overcast
7:15 AM 41.0 °F 32.8 °F 32.0 °F 70% 30.27 in 10.0 mi SE 16.1 mph - N/A   Scattered Clouds
7:35 AM 41.0 °F 33.1 °F 32.0 °F 70% 30.28 in 10.0 mi SE 15.0 mph - N/A   Scattered Clouds
7:55 AM 42.8 °F 35.1 °F 32.0 °F 66% 30.28 in 10.0 mi SE 16.1 mph 21.9 mph N/A   Scattered Clouds
8:15 AM 42.8 °F 35.4 °F 33.8 °F 70% 30.28 in 10.0 mi SE 15.0 mph 18.4 mph N/A   Mostly Cloudy
8:35 AM 44.6 °F 38.1 °F 33.8 °F 66% 30.29 in 10.0 mi SE 13.8 mph 19.6 mph N/A   Mostly Cloudy
8:55 AM 44.6 °F 36.9 °F 35.6 °F 71% 30.29 in 10.0 mi SE 18.4 mph 24.2 mph N/A   Mostly Cloudy
9:15 AM 46.4 °F 39.5 °F 35.6 °F 66% 30.28 in 10.0 mi SSE 17.3 mph 24.2 mph N/A   Mostly Cloudy
9:35 AM 48.2 °F - 35.6 °F 62% 30.28 in 10.0 mi SE 15.0 mph - N/A   Mostly Cloudy
9:55 AM 50.0 °F - 37.4 °F 62% 30.28 in 10.0 mi SE 18.4 mph - N/A   Scattered Clouds
10:15 AM 50.0 °F - 37.4 °F 62% 30.28 in 10.0 mi SSE 15.0 mph - N/A   Partly Cloudy
10:35 AM 51.8 °F - 37.4 °F 58% 30.28 in 10.0 mi SE 12.7 mph - N/A   Partly Cloudy
10:55 AM 53.6 °F - 39.2 °F 58% 30.28 in 10.0 mi SSE 12.7 mph - N/A   Clear
11:15 AM 55.4 °F - 39.2 °F 54% 30.27 in 10.0 mi SSE 17.3 mph 23.0 mph N/A   Clear
11:35 AM 57.2 °F - 39.2 °F 51% 30.27 in 10.0 mi SSE 18.4 mph 23.0 mph N/A   Clear
11:55 AM 59.0 °F - 41.0 °F 51% 30.26 in 10.0 mi South 16.1 mph 19.6 mph N/A   Clear
12:15 PM 59.0 °F - 41.0 °F 51% 30.25 in 10.0 mi SSE 17.3 mph - N/A   Clear
12:35 PM 60.8 °F - 41.0 °F 48% 30.24 in 10.0 mi SSE 13.8 mph 20.7 mph N/A   Clear
12:55 PM 62.6 °F - 42.8 °F 48% 30.23 in 10.0 mi South 15.0 mph 21.9 mph N/A   Clear
1:15 PM 62.6 °F - 41.0 °F 45% 30.22 in 10.0 mi South 18.4 mph 23.0 mph N/A   Clear
1:35 PM 62.6 °F - 42.8 °F 48% 30.22 in 10.0 mi SSE 18.4 mph 25.3 mph N/A   Clear
1:55 PM 62.6 °F - 41.0 °F 45% 30.21 in 10.0 mi SSE 15.0 mph 25.3 mph N/A   Partly Cloudy
2:15 PM 64.4 °F - 41.0 °F 42% 30.20 in 10.0 mi South 18.4 mph 24.2 mph N/A   Scattered Clouds
2:35 PM 64.4 °F - 42.8 °F 45% 30.19 in 10.0 mi South 12.7 mph 26.5 mph N/A   Mostly Cloudy
2:55 PM 64.4 °F - 42.8 °F 45% 30.18 in 10.0 mi South 17.3 mph 25.3 mph N/A   Scattered Clouds
3:15 PM 64.4 °F - 44.6 °F 49% 30.17 in 10.0 mi South 16.1 mph 24.2 mph N/A   Mostly Cloudy
3:35 PM 64.4 °F - 41.0 °F 42% 30.16 in 10.0 mi South 15.0 mph 25.3 mph N/A   Mostly Cloudy
3:55 PM 66.2 °F - 41.0 °F 40% 30.16 in 10.0 mi South 20.7 mph 26.5 mph N/A   Mostly Cloudy
4:15 PM 66.2 °F - 41.0 °F 40% 30.15 in 10.0 mi South 21.9 mph 27.6 mph N/A   Scattered Clouds
4:35 PM 64.4 °F - 39.2 °F 40% 30.15 in 10.0 mi South 20.7 mph 34.5 mph N/A   Clear
4:55 PM 64.4 °F - 39.2 °F 40% 30.15 in 10.0 mi South 16.1 mph 23.0 mph N/A   Partly Cloudy
5:15 PM 64.4 °F - 39.2 °F 40% 30.14 in 10.0 mi South 15.0 mph - N/A   Partly Cloudy
5:35 PM 64.4 °F - 37.4 °F 37% 30.14 in 10.0 mi South 23.0 mph 28.8 mph N/A   Partly Cloudy
5:55 PM 64.4 °F - 37.4 °F 37% 30.14 in 10.0 mi South 20.7 mph 28.8 mph N/A   Clear
6:15 PM 64.4 °F - 37.4 °F 37% 30.14 in 10.0 mi South 18.4 mph 24.2 mph N/A   Partly Cloudy
6:35 PM 64.4 °F - 35.6 °F 34% 30.14 in 10.0 mi SSE 19.6 mph 24.2 mph N/A   Clear
6:55 PM 62.6 °F - 37.4 °F 39% 30.14 in 10.0 mi South 16.1 mph 21.9 mph N/A   Clear
7:15 PM 60.8 °F - 37.4 °F 42% 30.14 in 10.0 mi SSE 13.8 mph 18.4 mph N/A   Clear
7:35 PM 59.0 °F - 37.4 °F 45% 30.15 in 10.0 mi SSE 12.7 mph - N/A   Partly Cloudy
7:55 PM 59.0 °F - 37.4 °F 45% 30.15 in 10.0 mi SSE 11.5 mph - N/A   Mostly Cloudy
8:15 PM 59.0 °F - 39.2 °F 48% 30.16 in 10.0 mi SSE 11.5 mph - N/A   Overcast
8:35 PM 57.2 °F - 41.0 °F 55% 30.16 in 10.0 mi SE 12.7 mph - N/A   Overcast
8:55 PM 57.2 °F - 41.0 °F 55% 30.16 in 10.0 mi SE 10.4 mph - N/A   Mostly Cloudy
9:15 PM 57.2 °F - 41.0 °F 55% 30.17 in 10.0 mi SE 13.8 mph - N/A   Mostly Cloudy
9:35 PM 57.2 °F - 41.0 °F 55% 30.17 in 10.0 mi SE 13.8 mph 20.7 mph N/A   Scattered Clouds
9:55 PM 55.4 °F - 41.0 °F 58% 30.18 in 10.0 mi SE 12.7 mph - N/A   Clear
10:15 PM 55.4 °F - 41.0 °F 58% 30.17 in 10.0 mi SE 17.3 mph - N/A   Partly Cloudy
10:35 PM 55.4 °F - 41.0 °F 58% 30.17 in 10.0 mi SE 17.3 mph 24.2 mph N/A   Mostly Cloudy
10:55 PM 55.4 °F - 41.0 °F 58% 30.17 in 10.0 mi SSE 18.4 mph 23.0 mph N/A   Overcast
11:15 PM 55.4 °F - 41.0 °F 58% 30.17 in 10.0 mi SSE 17.3 mph 24.2 mph N/A   Overcast
11:35 PM 53.6 °F - 41.0 °F 62% 30.17 in 10.0 mi SSE 17.3 mph 21.9 mph N/A   Mostly Cloudy
11:55 PM 53.6 °F - 41.0 °F 62% 30.18 in 10.0 mi SSE 16.1 mph 23.0 mph N/A   Mostly Cloudy